Skarsfjord — LF5531 — position and weather

sailwx.info

Track history (hours):
 
Tides and Currents Weather Stations Pressure Air Temp Water Temp Dewpoint Dewpoint Depression Visibility Wind Speed Wind Dir Waves Ship Positions

Skarsfjord

Last reported at 2018-Jan-11 16:01 UTC. Time now 2018-Jan-20 23:09 UTC.
Position N 66°15' E 012°25'.
Warning: this ship's position is 9 days out of date.

Length 13 m; draft 4 m.

Type: Fishing. MMSI: 257996900.

Date/timePositionNaut miles runAvg speedWind from/ knotsBaromVisibWave heightAir tempDewpointWater temp
2018-Jan-11 16:01N 66°15' E 012°25'0 6.4
2018-Jan-11 15:59N 66°15' E 012°25'3 6.7
2018-Jan-11 15:30N 66°18' E 012°24'3 6.3
2018-Jan-11 15:00N 66°22' E 012°23'1 1.2
2018-Jan-11 14:30N 66°22' E 012°22'0 0.0
2018-Jan-11 14:00N 66°22' E 012°22'0 0.0
2018-Jan-11 13:30N 66°22' E 012°22'0 0.0
2018-Jan-11 13:00N 66°22' E 012°22'0 0.0
2018-Jan-11 12:31N 66°22' E 012°22'0 0.0
2018-Jan-11 12:00N 66°22' E 012°22'0 0.0
2018-Jan-11 11:30N 66°22' E 012°22'0 0.0
2018-Jan-11 11:01N 66°22' E 012°22'0 0.0
2018-Jan-11 10:30N 66°22' E 012°22'0 0.0
2018-Jan-11 10:01N 66°22' E 012°22'0 0.0
2018-Jan-11 09:31N 66°22' E 012°22'0 0.0
2018-Jan-11 09:00N 66°22' E 012°22'0 0.0
2018-Jan-11 08:30N 66°22' E 012°22'0 0.0
2018-Jan-11 08:00N 66°22' E 012°22'0 0.0
2018-Jan-11 07:30N 66°22' E 012°22'0 0.0
2018-Jan-11 07:01N 66°22' E 012°22'0 0.0
2018-Jan-11 06:31N 66°22' E 012°22'0 0.0
2018-Jan-11 06:00N 66°22' E 012°22'0 0.0
2018-Jan-11 05:30N 66°22' E 012°22'0 0.0
2018-Jan-11 05:00N 66°22' E 012°22'0 0.0
2018-Jan-11 04:30N 66°22' E 012°22'0 0.0
2018-Jan-11 04:00N 66°22' E 012°22'0 0.0
2018-Jan-11 03:30N 66°22' E 012°22'3 6.0
2018-Jan-11 03:00N 66°24' E 012°28'3 6.3
2018-Jan-11 02:30N 66°26' E 012°35'3 6.4
2018-Jan-11 02:00N 66°27' E 012°42'4 7.0
2018-Jan-11 01:28N 66°30' E 012°49'7 7.3
2018-Jan-11 00:33N 66°35' E 012°58'21 7.2
2018-Jan-10 21:35N 66°54' E 013°25'1 7.8
2018-Jan-10 21:30N 66°54' E 013°26'3 6.9
2018-Jan-10 21:00N 66°57' E 013°29'4 7.4
2018-Jan-10 20:30N 66°58' E 013°38'4 7.5
2018-Jan-10 20:00N 67°01' E 013°45'4 7.6
2018-Jan-10 19:30N 67°04' E 013°52'4 7.3
2018-Jan-10 19:00N 67°06' E 013°58'3 7.0
2018-Jan-10 18:31N 67°09' E 014°03'4 7.1
2018-Jan-10 18:00N 67°12' E 014°08'4 7.3
2018-Jan-10 17:31N 67°15' E 014°15'4 7.6
2018-Jan-10 17:00N 67°17' E 014°22'4 7.2
2018-Jan-10 16:31N 67°21' E 014°26'4 7.2
2018-Jan-10 16:01N 67°24' E 014°31'4 7.2
2018-Jan-10 15:31N 67°27' E 014°35'6 0.5
2018-Jan-10 02:16N 67°32' E 014°44'1 4.0
2018-Jan-10 01:57N 67°31' E 014°42'2 4.0
2018-Jan-10 01:31N 67°30' E 014°38'2 4.2
2018-Jan-10 01:00N 67°28' E 014°35'2 4.2
2018-Jan-10 00:30N 67°27' E 014°32'2 4.3
2018-Jan-10 00:01N 67°25' E 014°29'2 4.3
2018-Jan-09 23:30N 67°23' E 014°25'2 4.3
2018-Jan-09 23:01N 67°21' E 014°22'2 4.0
2018-Jan-09 22:31N 67°20' E 014°19'3 5.2
2018-Jan-09 22:01N 67°18' E 014°15'3 6.9
2018-Jan-09 21:30N 67°15' E 014°11'3 6.9
2018-Jan-09 21:01N 67°12' E 014°06'4 7.2
2018-Jan-09 20:31N 67°09' E 014°02'4 6.9
2018-Jan-09 20:00N 67°06' E 013°57'3 6.8
2018-Jan-09 19:31N 67°03' E 013°51'3 6.6
2018-Jan-09 19:01N 67°01' E 013°44'4 6.7
2018-Jan-09 18:29N 66°59' E 013°37'3 6.5
2018-Jan-09 18:00N 66°58' E 013°30'30 6.0
2018-Jan-09 13:03N 66°32' E 012°54'2 6.9
2018-Jan-09 12:46N 66°30' E 012°50'2 6.9
2018-Jan-09 12:30N 66°29' E 012°47'3 7.0
2018-Jan-09 12:00N 66°27' E 012°40'4 7.7
2018-Jan-09 11:30N 66°25' E 012°32'4 7.8
2018-Jan-09 11:01N 66°22' E 012°24'1 1.7
2018-Jan-09 10:31N 66°22' E 012°22'0 0.0
2018-Jan-09 10:00N 66°22' E 012°22'0 0.0
2018-Jan-09 09:30N 66°22' E 012°22'0 0.0
2018-Jan-09 09:01N 66°22' E 012°22'0 0.0
2018-Jan-09 08:30N 66°22' E 012°22'0 0.0
2018-Jan-09 08:00N 66°22' E 012°22'0 0.0
2018-Jan-09 07:31N 66°22' E 012°22'0 0.0
2018-Jan-09 07:00N 66°22' E 012°22'0 0.0
2018-Jan-09 06:31N 66°22' E 012°22'0 0.0
2018-Jan-09 06:00N 66°22' E 012°22'0 0.5
2018-Jan-09 05:31N 66°22' E 012°22'0 0.0
2018-Jan-09 05:01N 66°22' E 012°22'0 0.0
2018-Jan-09 04:30N 66°22' E 012°22'0 0.0
2018-Jan-09 04:01N 66°22' E 012°22'0 0.0
2018-Jan-09 03:30N 66°22' E 012°22'0 0.0
2018-Jan-09 03:01N 66°22' E 012°22'0 0.0
2018-Jan-09 02:30N 66°22' E 012°22'0 0.0
2018-Jan-09 02:00N 66°22' E 012°22'0 0.0
2018-Jan-09 01:30N 66°22' E 012°22'0 0.0
2018-Jan-09 01:00N 66°22' E 012°22'0 0.0
2018-Jan-09 00:31N 66°22' E 012°22'0 0.0
2018-Jan-09 00:00N 66°22' E 012°22'0 0.0
2018-Jan-08 23:30N 66°22' E 012°22'0 0.0
2018-Jan-08 23:01N 66°22' E 012°22'0 0.0
2018-Jan-08 22:31N 66°22' E 012°22'0 0.0
2018-Jan-08 22:00N 66°22' E 012°22'0 0.0
2018-Jan-08 21:31N 66°22' E 012°22'0 0.0
2018-Jan-08 21:01N 66°22' E 012°22'0 0.0
2018-Jan-08 20:31N 66°22' E 012°22'0 0.0
2018-Jan-08 20:00N 66°22' E 012°22'0 0.0
2018-Jan-08 19:30N 66°22' E 012°22'0 0.0
2018-Jan-08 19:01N 66°22' E 012°22'0 0.0
2018-Jan-08 18:30N 66°22' E 012°22'0 0.0
2018-Jan-08 18:00N 66°22' E 012°22'2 3.3
2018-Jan-08 17:31N 66°23' E 012°26'3 6.2
2018-Jan-08 17:00N 66°25' E 012°32'3 6.2
2018-Jan-08 16:28N 66°23' E 012°40'3 6.1
2018-Jan-08 15:59N 66°20' E 012°40'  
2018-Jan-04 09:05N 66°27' E 012°59'2 7.3
2018-Jan-04 08:51N 66°25' E 012°59'5 3.0
2018-Jan-04 07:19N 66°21' E 012°59'6 0.5
2018-Jan-03 19:12N 66°19' E 012°46'1 6.9
2018-Jan-03 19:00N 66°18' E 012°43'5 7.4
2018-Jan-03 18:16N 66°15' E 012°33'  
Track history (hours):
 
Tides and Currents Weather Stations Pressure Air Temp Water Temp Dewpoint Dewpoint Depression Visibility Wind Speed Wind Dir Waves Ship Positions

Skarsfjord

Last reported at 2018-Jan-11 16:01 UTC. Time now 2018-Jan-20 23:09 UTC.
Position N 66°15' E 012°25'.
Warning: this ship's position is 9 days out of date.

Length 13 m; draft 4 m.

Type: Fishing. MMSI: 257996900.

Date/timePositionNaut miles runAvg speedWind from/ knotsBaromVisibWave heightAir tempDewpointWater temp
2018-Jan-11 16:01N 66°15' E 012°25'0 6.4
2018-Jan-11 15:59N 66°15' E 012°25'3 6.7
2018-Jan-11 15:30N 66°18' E 012°24'3 6.3
2018-Jan-11 15:00N 66°22' E 012°23'1 1.2
2018-Jan-11 14:30N 66°22' E 012°22'0 0.0
2018-Jan-11 14:00N 66°22' E 012°22'0 0.0
2018-Jan-11 13:30N 66°22' E 012°22'0 0.0
2018-Jan-11 13:00N 66°22' E 012°22'0 0.0
2018-Jan-11 12:31N 66°22' E 012°22'0 0.0
2018-Jan-11 12:00N 66°22' E 012°22'0 0.0
2018-Jan-11 11:30N 66°22' E 012°22'0 0.0
2018-Jan-11 11:01N 66°22' E 012°22'0 0.0
2018-Jan-11 10:30N 66°22' E 012°22'0 0.0
2018-Jan-11 10:01N 66°22' E 012°22'0 0.0
2018-Jan-11 09:31N 66°22' E 012°22'0 0.0
2018-Jan-11 09:00N 66°22' E 012°22'0 0.0
2018-Jan-11 08:30N 66°22' E 012°22'0 0.0
2018-Jan-11 08:00N 66°22' E 012°22'0 0.0
2018-Jan-11 07:30N 66°22' E 012°22'0 0.0
2018-Jan-11 07:01N 66°22' E 012°22'0 0.0
2018-Jan-11 06:31N 66°22' E 012°22'0 0.0
2018-Jan-11 06:00N 66°22' E 012°22'0 0.0
2018-Jan-11 05:30N 66°22' E 012°22'0 0.0
2018-Jan-11 05:00N 66°22' E 012°22'0 0.0
2018-Jan-11 04:30N 66°22' E 012°22'0 0.0
2018-Jan-11 04:00N 66°22' E 012°22'0 0.0
2018-Jan-11 03:30N 66°22' E 012°22'3 6.0
2018-Jan-11 03:00N 66°24' E 012°28'3 6.3
2018-Jan-11 02:30N 66°26' E 012°35'3 6.4
2018-Jan-11 02:00N 66°27' E 012°42'4 7.0
2018-Jan-11 01:28N 66°30' E 012°49'7 7.3
2018-Jan-11 00:33N 66°35' E 012°58'21 7.2
2018-Jan-10 21:35N 66°54' E 013°25'1 7.8
2018-Jan-10 21:30N 66°54' E 013°26'3 6.9
2018-Jan-10 21:00N 66°57' E 013°29'4 7.4
2018-Jan-10 20:30N 66°58' E 013°38'4 7.5
2018-Jan-10 20:00N 67°01' E 013°45'4 7.6
2018-Jan-10 19:30N 67°04' E 013°52'4 7.3
2018-Jan-10 19:00N 67°06' E 013°58'3 7.0
2018-Jan-10 18:31N 67°09' E 014°03'4 7.1
2018-Jan-10 18:00N 67°12' E 014°08'4 7.3
2018-Jan-10 17:31N 67°15' E 014°15'4 7.6
2018-Jan-10 17:00N 67°17' E 014°22'4 7.2
2018-Jan-10 16:31N 67°21' E 014°26'4 7.2
2018-Jan-10 16:01N 67°24' E 014°31'4 7.2
2018-Jan-10 15:31N 67°27' E 014°35'6 0.5
2018-Jan-10 02:16N 67°32' E 014°44'1 4.0
2018-Jan-10 01:57N 67°31' E 014°42'2 4.0
2018-Jan-10 01:31N 67°30' E 014°38'2 4.2
2018-Jan-10 01:00N 67°28' E 014°35'2 4.2
2018-Jan-10 00:30N 67°27' E 014°32'2 4.3
2018-Jan-10 00:01N 67°25' E 014°29'2 4.3
2018-Jan-09 23:30N 67°23' E 014°25'2 4.3
2018-Jan-09 23:01N 67°21' E 014°22'2 4.0
2018-Jan-09 22:31N 67°20' E 014°19'3 5.2
2018-Jan-09 22:01N 67°18' E 014°15'3 6.9
2018-Jan-09 21:30N 67°15' E 014°11'3 6.9
2018-Jan-09 21:01N 67°12' E 014°06'4 7.2
2018-Jan-09 20:31N 67°09' E 014°02'4 6.9
2018-Jan-09 20:00N 67°06' E 013°57'3 6.8
2018-Jan-09 19:31N 67°03' E 013°51'3 6.6
2018-Jan-09 19:01N 67°01' E 013°44'4 6.7
2018-Jan-09 18:29N 66°59' E 013°37'3 6.5
2018-Jan-09 18:00N 66°58' E 013°30'30 6.0
2018-Jan-09 13:03N 66°32' E 012°54'2 6.9
2018-Jan-09 12:46N 66°30' E 012°50'2 6.9
2018-Jan-09 12:30N 66°29' E 012°47'3 7.0
2018-Jan-09 12:00N 66°27' E 012°40'4 7.7
2018-Jan-09 11:30N 66°25' E 012°32'4 7.8
2018-Jan-09 11:01N 66°22' E 012°24'1 1.7
2018-Jan-09 10:31N 66°22' E 012°22'0 0.0
2018-Jan-09 10:00N 66°22' E 012°22'0 0.0
2018-Jan-09 09:30N 66°22' E 012°22'0 0.0
2018-Jan-09 09:01N 66°22' E 012°22'0 0.0
2018-Jan-09 08:30N 66°22' E 012°22'0 0.0
2018-Jan-09 08:00N 66°22' E 012°22'0 0.0
2018-Jan-09 07:31N 66°22' E 012°22'0 0.0
2018-Jan-09 07:00N 66°22' E 012°22'0 0.0
2018-Jan-09 06:31N 66°22' E 012°22'0 0.0
2018-Jan-09 06:00N 66°22' E 012°22'0 0.5
2018-Jan-09 05:31N 66°22' E 012°22'0 0.0
2018-Jan-09 05:01N 66°22' E 012°22'0 0.0
2018-Jan-09 04:30N 66°22' E 012°22'0 0.0
2018-Jan-09 04:01N 66°22' E 012°22'0 0.0
2018-Jan-09 03:30N 66°22' E 012°22'0 0.0
2018-Jan-09 03:01N 66°22' E 012°22'0 0.0
2018-Jan-09 02:30N 66°22' E 012°22'0 0.0
2018-Jan-09 02:00N 66°22' E 012°22'0 0.0
2018-Jan-09 01:30N 66°22' E 012°22'0 0.0
2018-Jan-09 01:00N 66°22' E 012°22'0 0.0
2018-Jan-09 00:31N 66°22' E 012°22'0 0.0
2018-Jan-09 00:00N 66°22' E 012°22'0 0.0
2018-Jan-08 23:30N 66°22' E 012°22'0 0.0
2018-Jan-08 23:01N 66°22' E 012°22'0 0.0
2018-Jan-08 22:31N 66°22' E 012°22'0 0.0
2018-Jan-08 22:00N 66°22' E 012°22'0 0.0
2018-Jan-08 21:31N 66°22' E 012°22'0 0.0
2018-Jan-08 21:01N 66°22' E 012°22'0 0.0
2018-Jan-08 20:31N 66°22' E 012°22'0 0.0
2018-Jan-08 20:00N 66°22' E 012°22'0 0.0
2018-Jan-08 19:30N 66°22' E 012°22'0 0.0
2018-Jan-08 19:01N 66°22' E 012°22'0 0.0
2018-Jan-08 18:30N 66°22' E 012°22'0 0.0
2018-Jan-08 18:00N 66°22' E 012°22'2 3.3
2018-Jan-08 17:31N 66°23' E 012°26'3 6.2
2018-Jan-08 17:00N 66°25' E 012°32'3 6.2
2018-Jan-08 16:28N 66°23' E 012°40'3 6.1
2018-Jan-08 15:59N 66°20' E 012°40'  
2018-Jan-04 09:05N 66°27' E 012°59'2 7.3
2018-Jan-04 08:51N 66°25' E 012°59'5 3.0
2018-Jan-04 07:19N 66°21' E 012°59'6 0.5
2018-Jan-03 19:12N 66°19' E 012°46'1 6.9
2018-Jan-03 19:00N 66°18' E 012°43'5 7.4
2018-Jan-03 18:16N 66°15' E 012°33'  

Dump ship's entire track history